Time;durP1;ratioP1;P1;durP2;ratioP2;P2;SDS_P1;SDS_P2;PMS_P1;PMS_P2;Temp;Humidity;BMP_temperature;BMP_pressure;BME280_temperature;BME280_humidity;BME280_pressure;Samples;Min_cycle;Max_cycle;Signal;HPM_P1;HPM_P2
2022/03/05 05:22:36;;;;;;;10.25;6.47;;;;;;;-0.16;61.36;100641.28;5129340;27;20161;-70
2022/03/05 05:25:02;;;;;;;12.27;6.80;;;;;;;-0.18;62.02;100640.53;5129756;28;20035;-70
2022/03/05 05:27:28;;;;;;;16.05;7.10;;;;;;;-0.28;63.37;100645.50;5127140;28;20420;-70
2022/03/05 05:29:54;;;;;;;13.52;7.03;;;;;;;-0.34;63.85;100643.25;5130102;28;20088;-70
2022/03/05 05:32:19;;;;;;;13.85;7.32;;;;;;;-0.61;66.10;100650.16;5129300;28;20031;-71
2022/03/05 05:34:46;;;;;;;11.63;7.30;;;;;;;-0.70;66.85;100656.78;5129381;28;20110;-70
2022/03/05 05:37:12;;;;;;;15.05;7.82;;;;;;;-0.75;67.40;100658.84;5129352;28;20066;-70
2022/03/05 05:39:37;;;;;;;13.55;7.65;;;;;;;-0.75;67.03;100663.22;5129456;28;20039;-70
2022/03/05 05:42:04;;;;;;;13.82;7.35;;;;;;;-0.78;67.30;100666.00;5128966;28;20396;-70
2022/03/05 05:44:30;;;;;;;17.35;7.30;;;;;;;-0.74;66.72;100668.38;5128001;28;20141;-70
2022/03/05 05:46:55;;;;;;;10.60;6.65;;;;;;;-0.78;66.57;100666.88;5129187;28;20047;-70
2022/03/05 05:49:21;;;;;;;10.70;6.82;;;;;;;-0.75;66.89;100665.84;5129095;28;20036;-70
2022/03/05 05:51:47;;;;;;;12.00;6.75;;;;;;;-0.86;67.88;100669.91;5128771;28;20043;-71
2022/03/05 05:54:13;;;;;;;10.25;6.70;;;;;;;-1.01;68.73;100676.06;5129329;27;20028;-70
2022/03/05 05:56:39;;;;;;;12.15;6.78;;;;;;;-0.98;69.49;100673.28;5129144;27;20066;-70
2022/03/05 05:59:05;;;;;;;14.88;7.28;;;;;;;-0.99;69.37;100668.94;5127719;28;20039;-70
2022/03/05 06:01:31;;;;;;;13.65;8.07;;;;;;;-1.07;69.61;100672.97;5128871;28;20537;-70
2022/03/05 06:03:57;;;;;;;11.48;6.85;;;;;;;-1.05;69.75;100678.94;5128678;28;20066;-71
2022/03/05 06:06:22;;;;;;;13.38;7.45;;;;;;;-1.16;70.85;100669.09;5128958;28;20035;-71
2022/03/05 06:08:49;;;;;;;13.65;7.30;;;;;;;-1.13;70.34;100680.22;5128950;28;20039;-71
2022/03/05 06:11:14;;;;;;;13.55;7.03;;;;;;;-1.19;71.54;100685.78;5128739;28;20031;-71
2022/03/05 06:13:40;;;;;;;14.63;7.93;;;;;;;-1.22;71.00;100678.13;5128490;28;20380;-70
2022/03/05 06:16:06;;;;;;;12.55;6.32;;;;;;;-1.24;70.83;100680.00;5127398;28;20054;-70
2022/03/05 06:18:33;;;;;;;13.48;7.57;;;;;;;-1.25;71.99;100682.69;5128699;28;20114;-70
2022/03/05 06:20:58;;;;;;;13.60;7.65;;;;;;;-1.20;71.82;100685.88;5128608;28;20058;-71
2022/03/05 06:23:25;;;;;;;11.60;7.05;;;;;;;-1.11;70.26;100690.56;5127030;28;20039;-70
2022/03/05 06:25:52;;;;;;;12.38;7.50;;;;;;;-1.01;69.78;100689.13;5128548;28;20064;-70
2022/03/05 06:28:18;;;;;;;10.75;7.10;;;;;;;-0.90;68.83;100693.75;5128642;28;20157;-70
2022/03/05 06:30:44;;;;;;;13.65;7.18;;;;;;;-0.76;67.75;100680.69;5127393;28;20126;-70
2022/03/05 06:33:10;;;;;;;13.80;7.35;;;;;;;-0.65;66.82;100695.78;5119016;28;20031;-71
2022/03/05 06:35:35;;;;;;;14.60;7.03;;;;;;;-0.46;65.78;100691.09;5115004;28;20034;-70
2022/03/05 06:38:01;;;;;;;15.15;7.72;;;;;;;-0.23;64.79;100700.19;5114824;28;20043;-71
2022/03/05 06:40:27;;;;;;;10.77;6.80;;;;;;;-0.03;64.27;100693.75;5113417;28;20040;-72
2022/03/05 06:42:54;;;;;;;11.75;6.88;;;;;;;0.10;63.38;100691.22;5114239;28;20027;-70
2022/03/05 06:45:20;;;;;;;14.68;7.85;;;;;;;0.20;63.37;100694.94;5114792;28;20056;-71
2022/03/05 06:47:46;;;;;;;13.27;7.05;;;;;;;0.31;63.73;100705.56;5114380;28;20522;-71
2022/03/05 06:50:12;;;;;;;13.23;6.85;;;;;;;0.42;63.08;100712.78;5114319;28;20040;-71
2022/03/05 06:52:38;;;;;;;12.65;7.30;;;;;;;0.53;61.71;100711.16;5114087;28;20118;-71
2022/03/05 06:55:05;;;;;;;15.20;7.25;;;;;;;0.68;61.39;100711.94;5114256;28;20490;-70
2022/03/05 06:57:30;;;;;;;12.80;6.47;;;;;;;0.79;60.39;100725.22;5113888;28;20067;-70
2022/03/05 06:59:56;;;;;;;11.40;6.40;;;;;;;0.88;60.39;100707.19;5114263;28;20055;-70
2022/03/05 07:02:22;;;;;;;14.80;6.70;;;;;;;1.04;59.64;100716.59;5113797;28;20039;-69
2022/03/05 07:04:49;;;;;;;11.27;6.97;;;;;;;1.06;59.87;100729.63;5114053;28;20031;-71
2022/03/05 07:07:15;;;;;;;13.77;7.43;;;;;;;1.18;59.36;100735.84;5113989;28;20031;-71
2022/03/05 07:09:40;;;;;;;11.27;7.10;;;;;;;1.36;58.49;100718.84;5095888;28;20035;-71
2022/03/05 07:12:07;;;;;;;13.15;7.03;;;;;;;1.40;59.01;100719.50;5112267;28;20040;-71
2022/03/05 07:14:32;;;;;;;13.82;7.82;;;;;;;1.50;58.61;100728.41;5112535;28;20108;-72
2022/03/05 07:16:58;;;;;;;11.50;7.03;;;;;;;1.58;58.14;100723.50;5112476;28;20484;-71
2022/03/05 07:19:24;;;;;;;10.45;6.65;;;;;;;1.42;58.50;100713.19;5114040;28;20067;-71
2022/03/05 07:21:50;;;;;;;14.95;7.45;;;;;;;1.61;58.27;100720.66;5112101;28;20071;-71
2022/03/05 07:24:17;;;;;;;12.82;7.38;;;;;;;1.63;58.67;100724.03;5095478;28;20045;-70
2022/03/05 07:26:42;;;;;;;10.15;7.13;;;;;;;1.69;58.78;100720.13;5113686;28;20545;-72
2022/03/05 07:29:08;;;;;;;11.30;6.47;;;;;;;1.68;58.72;100721.09;5112550;28;20043;-72
2022/03/05 07:31:34;;;;;;;12.90;7.65;;;;;;;1.73;58.73;100722.44;5113275;28;20122;-72
2022/03/05 07:33:59;;;;;;;11.80;6.95;;;;;;;1.68;59.38;100724.53;5112184;28;20491;-72
2022/03/05 07:36:25;;;;;;;13.15;7.55;;;;;;;1.88;58.20;100723.19;5113570;28;20032;-72
2022/03/05 07:38:51;;;;;;;13.63;7.03;;;;;;;1.98;58.13;100721.59;5095463;28;20136;-70
2022/03/05 07:41:17;;;;;;;10.80;7.10;;;;;;;2.20;57.58;100731.44;5113632;28;20488;-70
2022/03/05 07:43:44;;;;;;;12.38;7.30;;;;;;;2.30;57.58;100726.41;5111274;28;20096;-72
2022/03/05 07:46:09;;;;;;;12.20;7.18;;;;;;;2.42;56.92;100731.63;5111684;28;20059;-71
2022/03/05 07:48:35;;;;;;;11.30;6.88;;;;;;;2.43;57.32;100725.41;5112277;28;20397;-72
2022/03/05 07:51:02;;;;;;;11.85;7.32;;;;;;;2.57;56.06;100728.84;5112023;28;20080;-71
2022/03/05 07:53:29;;;;;;;10.32;6.75;;;;;;;2.69;56.38;100728.81;5111628;28;20505;-72
2022/03/05 07:55:55;;;;;;;13.27;6.70;;;;;;;2.82;55.04;100728.75;5112140;28;20039;-73
2022/03/05 07:58:21;;;;;;;9.57;6.93;;;;;;;2.93;54.98;100733.22;5112510;28;20110;-72
2022/03/05 08:00:50;;;;;;;13.15;7.07;;;;;;;3.13;53.57;100742.28;5112709;28;20457;-72
2022/03/05 08:03:16;;;;;;;12.85;7.35;;;;;;;3.30;53.29;100747.13;5113059;28;20031;-73
2022/03/05 08:05:43;;;;;;;10.90;6.82;;;;;;;3.29;53.53;100742.84;5111802;28;20026;-71
2022/03/05 08:08:08;;;;;;;10.63;7.07;;;;;;;3.53;52.10;100746.25;5112942;28;20042;-73
2022/03/05 08:10:34;;;;;;;12.52;6.70;;;;;;;3.65;52.53;100741.00;5111630;28;20395;-72
2022/03/05 08:13:00;;;;;;;11.32;7.00;;;;;;;3.82;51.58;100743.19;5112520;28;20027;-72
2022/03/05 08:15:25;;;;;;;12.30;7.38;;;;;;;3.73;52.21;100749.19;5094631;28;20641;-73
2022/03/05 08:17:56;;;;;;;11.40;7.32;;;;;;;3.86;51.68;100741.19;5111434;28;20396;-73
2022/03/05 08:20:25;;;;;;;11.98;7.00;;;;;;;4.01;50.85;100754.00;5111019;28;20199;-73
2022/03/05 08:22:51;;;;;;;13.40;7.63;;;;;;;4.13;50.32;100743.47;5093827;28;20082;-73
2022/03/05 08:25:17;;;;;;;11.20;7.40;;;;;;;4.11;51.20;100740.09;5112253;28;20027;-72
2022/03/05 08:27:42;;;;;;;11.80;7.40;;;;;;;4.29;50.49;100743.94;5094265;28;20040;-73
2022/03/05 08:30:09;;;;;;;13.07;7.43;;;;;;;4.39;50.38;100744.91;5112512;28;20084;-72
2022/03/05 08:32:35;;;;;;;10.18;7.35;;;;;;;4.49;49.37;100742.34;5112050;28;20090;-73
2022/03/05 08:35:01;;;;;;;11.85;7.05;;;;;;;4.59;49.28;100738.03;5112499;28;20031;-72
2022/03/05 08:37:27;;;;;;;12.00;7.43;;;;;;;4.80;49.66;100736.28;5112335;28;20032;-72
2022/03/05 08:39:54;;;;;;;14.38;7.97;;;;;;;4.99;49.34;100740.09;5112102;28;20449;-73
2022/03/05 08:42:20;;;;;;;16.40;8.57;;;;;;;4.98;48.46;100733.13;5111923;28;20073;-73
2022/03/05 08:44:46;;;;;;;15.43;8.75;;;;;;;4.78;48.61;100738.22;5112285;28;20070;-73
2022/03/05 08:47:13;;;;;;;13.45;8.73;;;;;;;5.08;47.79;100737.50;5112328;28;20028;-73
2022/03/05 08:49:39;;;;;;;14.00;8.55;;;;;;;5.10;48.23;100732.97;5093975;28;20047;-73
2022/03/05 08:52:05;;;;;;;13.38;8.00;;;;;;;5.29;47.63;100728.81;5111737;28;20133;-73
2022/03/05 08:54:31;;;;;;;14.70;9.02;;;;;;;5.08;47.83;100721.66;5112196;28;20027;-73
2022/03/05 08:56:57;;;;;;;14.93;8.13;;;;;;;5.29;47.73;100739.38;5110316;28;20031;-73
2022/03/05 08:59:22;;;;;;;14.40;8.80;;;;;;;5.05;48.60;100727.22;5112329;28;20073;-71
2022/03/05 09:01:48;;;;;;;14.95;8.48;;;;;;;5.31;47.73;100734.78;5110744;28;20472;-72
2022/03/05 09:04:14;;;;;;;12.63;8.45;;;;;;;5.38;47.27;100733.31;5112717;28;20088;-72
2022/03/05 09:06:41;;;;;;;13.65;8.50;;;;;;;5.47;47.01;100727.25;5111987;28;20046;-72
2022/03/05 09:09:08;;;;;;;12.73;7.97;;;;;;;5.62;46.10;100725.16;5111761;28;20032;-73
2022/03/05 09:11:37;;;;;;;12.85;7.70;;;;;;;5.81;46.46;100730.56;5111931;28;20035;-72
2022/03/05 09:14:06;;;;;;;12.30;8.25;;;;;;;6.07;45.70;100736.28;5112646;28;20035;-72
2022/03/05 09:16:35;;;;;;;13.40;8.25;;;;;;;6.01;45.62;100738.63;5111893;28;20031;-71
2022/03/05 09:19:01;;;;;;;15.55;9.23;;;;;;;6.22;45.45;100727.00;5111827;28;20456;-71
2022/03/05 09:21:26;;;;;;;11.45;7.50;;;;;;;6.42;45.30;100716.50;5111535;28;20055;-72
2022/03/05 09:23:52;;;;;;;12.60;7.93;;;;;;;6.64;45.20;100723.34;5111231;28;20545;-72
2022/03/05 09:26:18;;;;;;;13.27;8.63;;;;;;;6.75;44.56;100718.78;5111414;28;20040;-71
2022/03/05 09:28:44;;;;;;;12.57;8.30;;;;;;;6.95;44.39;100721.47;5110453;28;20034;-72
2022/03/05 09:31:11;;;;;;;11.00;7.50;;;;;;;7.00;43.38;100716.59;5111576;28;20035;-71
2022/03/05 09:33:37;;;;;;;11.40;7.05;;;;;;;6.99;43.65;100721.06;5111267;28;20035;-71
2022/03/05 09:36:03;;;;;;;11.90;7.00;;;;;;;7.17;43.32;100730.94;5111616;28;20042;-71
2022/03/05 09:38:29;;;;;;;12.10;7.22;;;;;;;7.47;43.11;100724.66;5111616;28;20043;-73
2022/03/05 09:40:55;;;;;;;12.98;8.02;;;;;;;7.34;42.48;100728.44;5111655;28;20024;-72
2022/03/05 09:43:21;;;;;;;15.02;8.13;;;;;;;7.27;42.76;100737.09;5111134;28;20116;-72
2022/03/05 09:45:47;;;;;;;11.48;7.35;;;;;;;7.39;42.51;100732.47;5111441;28;20381;-71
2022/03/05 09:48:17;;;;;;;11.20;7.10;;;;;;;7.66;40.68;100718.50;5109895;28;20023;-72
2022/03/05 09:50:44;;;;;;;11.85;6.63;;;;;;;7.77;41.02;100721.81;5111707;28;20063;-72
2022/03/05 09:53:09;;;;;;;14.63;7.85;;;;;;;8.00;41.08;100734.72;5111093;28;20039;-73
2022/03/05 09:55:35;;;;;;;13.88;7.97;;;;;;;8.03;40.28;100724.66;5111288;28;20499;-71
2022/03/05 09:58:01;;;;;;;11.57;7.53;;;;;;;7.97;40.41;100711.97;5109684;28;20032;-71
2022/03/05 10:00:27;;;;;;;12.25;7.35;;;;;;;8.09;39.73;100710.81;5111266;28;20043;-71
2022/03/05 10:02:53;;;;;;;9.35;6.65;;;;;;;8.65;38.89;100701.03;5110912;28;20229;-71
2022/03/05 10:05:24;;;;;;;12.27;7.50;;;;;;;9.06;37.86;100717.38;5111019;28;20111;-72
2022/03/05 10:08:11;;;;;;;10.70;7.07;;;;;;;9.48;37.01;100702.47;5112493;28;20502;-71
2022/03/05 10:10:48;;;;;;;9.88;6.97;;;;;;;9.32;36.19;100702.34;5098234;28;20039;-72
2022/03/05 10:13:20;;;;;;;10.88;7.15;;;;;;;9.79;35.92;100707.34;5114882;28;20065;-72
2022/03/05 10:15:48;;;;;;;8.82;6.28;;;;;;;9.90;36.53;100703.56;5113767;28;20028;-71
2022/03/05 10:18:13;;;;;;;10.68;6.57;;;;;;;10.56;34.78;100694.88;5113793;28;20039;-71
2022/03/05 10:20:50;;;;;;;9.85;6.40;;;;;;;10.80;33.37;100688.78;5114889;27;20042;-72
2022/03/05 10:23:18;;;;;;;8.07;6.15;;;;;;;11.14;32.40;100705.50;5114678;28;20031;-72
2022/03/05 10:25:50;;;;;;;9.27;5.85;;;;;;;11.46;31.64;100708.31;5113568;28;20076;-71
2022/03/05 10:28:27;;;;;;;8.65;5.65;;;;;;;11.14;32.12;100702.00;5114976;28;20036;-71
2022/03/05 10:31:03;;;;;;;8.60;5.47;;;;;;;10.84;31.12;100695.47;5114787;28;20085;-71
2022/03/05 10:33:40;;;;;;;9.30;6.22;;;;;;;11.62;30.48;100700.31;5114484;28;20048;-72
2022/03/05 10:36:19;;;;;;;9.47;5.87;;;;;;;11.53;30.72;100698.66;5114557;28;20065;-72
2022/03/05 10:39:00;;;;;;;7.60;5.50;;;;;;;11.75;30.73;100695.31;5114810;28;20387;-72
2022/03/05 10:41:40;;;;;;;7.05;5.57;;;;;;;12.14;29.78;100673.19;5114489;28;20472;-72
2022/03/05 10:44:11;;;;;;;7.80;5.38;;;;;;;11.74;29.32;100688.31;5114398;28;20036;-73
2022/03/05 10:46:39;;;;;;;8.68;5.43;;;;;;;12.62;29.16;100695.34;5112940;28;20040;-73
2022/03/05 10:49:18;;;;;;;9.25;6.20;;;;;;;12.19;29.77;100687.69;5114282;28;20032;-73
2022/03/05 10:51:46;;;;;;;7.95;5.43;;;;;;;12.76;28.82;100687.38;5097361;28;20032;-73
2022/03/05 10:54:11;;;;;;;6.35;4.65;;;;;;;13.26;27.59;100686.06;5114336;28;20032;-74
2022/03/05 10:56:37;;;;;;;7.40;4.53;;;;;;;13.02;28.01;100686.22;5114288;28;20046;-73
2022/03/05 10:59:11;;;;;;;6.93;4.75;;;;;;;13.14;26.59;100676.75;5113158;28;20069;-73
2022/03/05 11:01:40;;;;;;;7.38;4.43;;;;;;;13.36;26.54;100674.25;5114291;28;20069;-72
2022/03/05 11:04:07;;;;;;;6.38;4.03;;;;;;;13.01;26.90;100676.53;5114224;28;20054;-72
2022/03/05 11:06:37;;;;;;;6.30;4.50;;;;;;;12.95;26.69;100677.25;5113976;28;20027;-73
2022/03/05 11:09:04;;;;;;;6.85;4.40;;;;;;;12.78;26.26;100657.84;5114061;28;20381;-73
2022/03/05 11:11:31;;;;;;;4.88;3.90;;;;;;;13.07;24.98;100665.13;5113451;28;20110;-73
2022/03/05 11:13:57;;;;;;;6.25;4.30;;;;;;;12.20;26.09;100662.66;5113983;28;20070;-72
2022/03/05 11:16:24;;;;;;;5.75;4.13;;;;;;;13.00;25.25;100664.19;5113975;28;20065;-73
2022/03/05 11:18:50;;;;;;;7.35;4.45;;;;;;;13.58;24.76;100663.53;5113624;27;20088;-73
2022/03/05 11:21:16;;;;;;;5.53;3.88;;;;;;;13.62;25.14;100663.16;5113598;28;20138;-72
2022/03/05 11:23:42;;;;;;;5.28;4.03;;;;;;;13.60;24.98;100663.34;5113384;28;20151;-73
2022/03/05 11:26:08;;;;;;;8.15;4.40;;;;;;;13.21;25.51;100663.53;5112232;28;20469;-74
2022/03/05 11:28:44;;;;;;;8.98;4.20;;;;;;;12.49;26.10;100663.84;5112405;28;20114;-73
2022/03/05 11:31:18;;;;;;;6.53;4.03;;;;;;;13.13;25.25;100667.09;5095486;28;20493;-73
2022/03/05 11:33:46;;;;;;;5.85;3.95;;;;;;;13.06;24.69;100654.59;5113279;28;20392;-73
2022/03/05 11:36:36;;;;;;;5.90;3.92;;;;;;;13.21;24.57;100671.56;5113386;28;20583;-73
2022/03/05 11:39:22;;;;;;;5.93;4.25;;;;;;;13.53;24.88;100657.88;5113437;28;20035;-73
2022/03/05 11:42:03;;;;;;;8.02;4.78;;;;;;;14.22;24.52;100651.44;5113692;28;20167;-73
2022/03/05 11:44:39;;;;;;;6.22;4.47;;;;;;;14.30;24.55;100664.72;5113537;28;20084;-74
2022/03/05 11:47:21;;;;;;;6.93;4.68;;;;;;;13.34;25.24;100655.72;5111877;28;20036;-73
2022/03/05 11:50:13;;;;;;;6.55;4.82;;;;;;;13.53;25.42;100641.81;5113183;27;20081;-74
2022/03/05 11:52:39;;;;;;;7.53;5.25;;;;;;;13.48;25.46;100651.41;5106037;28;20055;-72
2022/03/05 11:55:24;;;;;;;6.72;5.18;;;;;;;13.44;25.58;100658.16;5113203;28;20034;-74
2022/03/05 11:57:52;;;;;;;6.93;4.68;;;;;;;14.49;24.51;100639.22;5113195;28;20039;-73
2022/03/05 12:00:26;;;;;;;7.70;4.90;;;;;;;14.64;24.51;100631.94;5113087;28;20515;-74
2022/03/05 12:02:57;;;;;;;6.65;5.20;;;;;;;14.98;24.41;100627.72;5112953;28;20027;-74
2022/03/05 12:05:38;;;;;;;7.30;5.03;;;;;;;15.48;23.46;100622.16;5113495;28;20031;-74
2022/03/05 12:08:29;;;;;;;7.88;5.18;;;;;;;14.64;23.90;100629.25;5113242;28;20054;-74
2022/03/05 12:11:15;;;;;;;6.80;5.15;;;;;;;14.83;23.72;100614.41;5111135;28;20077;-74
2022/03/05 12:13:46;;;;;;;6.15;4.13;;;;;;;14.92;22.49;100616.75;5112763;28;20053;-73
2022/03/05 12:16:14;;;;;;;6.25;4.40;;;;;;;14.21;23.57;100610.38;5112999;27;20039;-73
2022/03/05 12:18:41;;;;;;;6.55;4.80;;;;;;;14.09;23.46;100617.28;5112791;28;20019;-74
2022/03/05 12:21:07;;;;;;;5.93;4.70;;;;;;;14.30;23.54;100609.28;5112642;28;20069;-74
2022/03/05 12:23:33;;;;;;;6.63;4.95;;;;;;;15.23;23.14;100610.19;5111146;28;20047;-74
2022/03/05 12:26:03;;;;;;;6.47;4.95;;;;;;;15.38;22.97;100608.22;5112606;28;20027;-73
2022/03/05 12:28:41;;;;;;;8.45;5.20;;;;;;;15.34;22.59;100612.34;5112572;28;20028;-74
2022/03/05 12:31:15;;;;;;;6.25;4.78;;;;;;;15.17;22.71;100608.28;5112054;28;20039;-73
2022/03/05 12:33:40;;;;;;;6.55;4.78;;;;;;;14.62;23.41;100604.50;5112690;28;20160;-73
2022/03/05 12:36:16;;;;;;;6.60;4.88;;;;;;;14.95;23.06;100598.63;5111031;28;20031;-74
2022/03/05 12:38:42;;;;;;;6.80;5.00;;;;;;;14.86;23.39;100601.41;5112447;28;20119;-75
2022/03/05 12:41:08;;;;;;;6.57;5.15;;;;;;;14.62;23.74;100588.41;5111995;28;20035;-74
2022/03/05 12:43:33;;;;;;;5.72;4.78;;;;;;;14.52;24.00;100585.22;5112093;28;20119;-75
2022/03/05 12:46:02;;;;;;;7.45;5.00;;;;;;;14.09;24.41;100585.97;5094798;28;20039;-74
2022/03/05 12:48:31;;;;;;;8.30;5.50;;;;;;;15.09;23.55;100582.44;5111271;28;20666;-73
2022/03/05 12:50:57;;;;;;;6.75;5.30;;;;;;;15.37;23.00;100589.66;5112292;28;20063;-73
2022/03/05 12:53:25;;;;;;;7.03;5.00;;;;;;;15.49;22.64;100577.34;5112001;28;20465;-73
2022/03/05 12:55:58;;;;;;;6.28;4.88;;;;;;;15.97;22.77;100572.88;5112848;28;20045;-73
2022/03/05 12:58:29;;;;;;;6.18;4.63;;;;;;;15.22;22.55;100579.03;5108027;28;20471;-72
2022/03/05 13:01:07;;;;;;;8.20;5.00;;;;;;;15.41;22.49;100578.31;5111712;28;20086;-73
2022/03/05 13:03:35;;;;;;;6.80;5.38;;;;;;;15.92;22.39;100566.44;5102900;28;20053;-73
2022/03/05 13:06:03;;;;;;;7.10;5.03;;;;;;;14.81;23.56;100573.53;5110508;28;20450;-75
2022/03/05 13:08:34;;;;;;;6.35;4.80;;;;;;;14.70;23.67;100566.84;5111673;28;20042;-73
2022/03/05 13:11:12;;;;;;;6.50;4.72;;;;;;;14.75;23.53;100564.41;5110569;28;20050;-73
2022/03/05 13:13:41;;;;;;;6.03;4.88;;;;;;;15.73;22.21;100560.78;5110527;28;20065;-73
2022/03/05 13:16:09;;;;;;;6.88;4.88;;;;;;;15.44;22.38;100561.00;5111689;28;20024;-73
2022/03/05 13:18:36;;;;;;;9.07;5.68;;;;;;;15.41;22.66;100558.72;5093724;28;20035;-73
2022/03/05 13:21:07;;;;;;;8.38;5.57;;;;;;;15.51;22.41;100563.72;5112884;28;20031;-73
2022/03/05 13:23:38;;;;;;;5.63;4.82;;;;;;;15.89;22.43;100554.22;5110193;28;20043;-73
2022/03/05 13:26:04;;;;;;;5.05;4.45;;;;;;;15.65;21.51;100563.63;5110896;28;20111;-74
2022/03/05 13:28:31;;;;;;;7.22;4.43;;;;;;;15.33;22.22;100562.38;5110904;28;20027;-74
2022/03/05 13:31:02;;;;;;;7.63;4.60;;;;;;;15.53;22.44;100554.44;5111700;28;20040;-72
2022/03/05 13:33:41;;;;;;;5.95;4.88;;;;;;;15.15;22.95;100564.72;5110848;28;20389;-73
2022/03/05 13:36:16;;;;;;;7.00;5.30;;;;;;;14.22;22.79;100555.81;5110124;28;20028;-73
2022/03/05 13:38:42;;;;;;;6.30;4.88;;;;;;;15.07;22.58;100557.66;5111497;28;20053;-73
2022/03/05 13:41:10;;;;;;;5.65;4.72;;;;;;;14.01;23.80;100555.75;5111159;28;20036;-72
2022/03/05 13:43:38;;;;;;;7.18;4.70;;;;;;;14.37;22.89;100553.91;5112658;28;20045;-73
2022/03/05 13:46:08;;;;;;;6.22;4.85;;;;;;;13.69;24.50;100547.16;5115647;28;20065;-74
2022/03/05 13:48:54;;;;;;;5.30;4.75;;;;;;;13.08;24.65;100553.63;5115857;28;20036;-74
2022/03/05 13:51:28;;;;;;;5.78;4.35;;;;;;;13.13;24.24;100564.63;5115684;27;20035;-72
2022/03/05 13:53:56;;;;;;;6.07;4.60;;;;;;;12.53;25.75;100554.78;5115881;28;20113;-73
2022/03/05 13:56:22;;;;;;;5.85;4.82;;;;;;;12.83;24.84;100566.38;5115810;28;20047;-74
2022/03/05 13:58:56;;;;;;;6.28;4.47;;;;;;;12.41;25.14;100552.50;5115000;28;20527;-73
2022/03/05 14:01:36;;;;;;;6.72;4.75;;;;;;;12.14;25.60;100534.34;5115555;28;20440;-73
2022/03/05 14:04:12;;;;;;;6.32;4.68;;;;;;;12.12;26.26;100552.34;5113632;28;20040;-73
2022/03/05 14:06:58;;;;;;;8.07;5.28;;;;;;;12.06;26.15;100537.88;5115449;28;20104;-74
2022/03/05 14:09:28;;;;;;;10.05;5.53;;;;;;;11.65;27.49;100540.69;5111345;28;20046;-69
2022/03/05 14:12:10;;;;;;;8.13;4.80;;;;;;;11.69;28.84;100543.88;5112068;28;20031;-70
2022/03/05 14:14:51;;;;;;;8.07;4.18;;;;;;;11.78;30.43;100545.50;5093423;28;20058;-70
2022/03/05 14:17:36;;;;;;;6.35;4.72;;;;;;;11.65;27.13;100537.22;5094501;28;20028;-71
2022/03/05 14:20:18;;;;;;;5.80;4.43;;;;;;;11.52;27.44;100537.75;5094473;28;20024;-68
2022/03/05 14:22:54;;;;;;;5.57;4.22;;;;;;;10.37;28.28;100543.38;5093625;28;20044;-69
2022/03/05 14:25:31;;;;;;;8.65;4.70;;;;;;;10.64;29.45;100528.94;5092648;28;20050;-69
2022/03/05 14:27:59;;;;;;;5.77;4.47;;;;;;;10.78;28.96;100536.25;5093138;28;20460;-68
2022/03/05 14:30:25;;;;;;;;;;;;;;;11.09;28.32;100536.38;5094642;28;20029;-71
2022/03/05 14:32:51;;;;;;;6.07;4.45;;;;;;;10.76;28.54;100527.59;5094030;28;19958;-71
2022/03/05 14:35:18;;;;;;;7.25;4.80;;;;;;;10.31;29.25;100528.91;5092857;28;20123;-71
2022/03/05 14:37:47;;;;;;;6.53;4.68;;;;;;;10.10;29.59;100531.97;5100712;28;20454;-71
2022/03/05 14:40:16;;;;;;;8.23;4.72;;;;;;;10.21;30.24;100530.84;5113004;28;20055;-71
2022/03/05 14:42:42;;;;;;;6.00;5.07;;;;;;;10.26;29.43;100533.91;5114000;28;20044;-71
2022/03/05 14:45:09;;;;;;;6.78;4.75;;;;;;;9.85;30.12;100533.78;5113360;28;20088;-71
2022/03/05 14:47:37;;;;;;;8.05;5.10;;;;;;;9.58;30.30;100521.50;5114284;28;20149;-71
2022/03/05 14:50:03;;;;;;;8.02;5.13;;;;;;;9.60;30.54;100527.53;5114054;28;20032;-71
2022/03/05 14:52:29;;;;;;;6.63;4.63;;;;;;;9.69;31.77;100531.88;5113445;28;20119;-69
2022/03/05 14:54:55;;;;;;;6.47;4.47;;;;;;;9.08;31.39;100524.09;5113727;28;20053;-69
2022/03/05 14:57:21;;;;;;;7.70;4.72;;;;;;;8.79;33.86;100525.22;5113027;28;20031;-69
2022/03/05 14:59:50;;;;;;;6.13;3.95;;;;;;;9.00;32.14;100516.06;5114000;28;20039;-69
2022/03/05 15:02:17;;;;;;;7.18;4.80;;;;;;;9.27;31.67;100523.88;5113747;28;20032;-69
2022/03/05 15:04:44;;;;;;;5.47;3.97;;;;;;;9.01;31.19;100523.88;5113896;28;20035;-70
2022/03/05 15:07:10;;;;;;;6.80;4.20;;;;;;;9.17;30.64;100517.81;5113673;28;20111;-70
2022/03/05 15:09:36;;;;;;;7.53;4.70;;;;;;;9.14;31.33;100523.47;5114070;28;20035;-70
2022/03/05 15:12:03;;;;;;;6.85;4.13;;;;;;;9.06;31.21;100531.38;5113808;28;20042;-70
2022/03/05 15:14:29;;;;;;;6.18;4.53;;;;;;;9.01;31.52;100531.84;5114051;28;20116;-69
2022/03/05 15:16:54;;;;;;;6.63;4.03;;;;;;;8.85;31.81;100540.53;5114584;28;20096;-69
2022/03/05 15:19:22;;;;;;;6.50;3.88;;;;;;;8.70;31.73;100531.47;5112773;28;20035;-69
2022/03/05 15:21:48;;;;;;;5.47;3.83;;;;;;;8.74;31.95;100522.22;5113186;28;20252;-69
2022/03/05 15:24:14;;;;;;;6.55;4.35;;;;;;;8.46;32.76;100525.94;5112566;28;20071;-69
2022/03/05 15:26:40;;;;;;;6.25;4.10;;;;;;;8.58;32.40;100527.38;5113514;28;20549;-70
2022/03/05 15:29:06;;;;;;;5.07;3.58;;;;;;;8.47;33.62;100524.94;5113649;28;20036;-69
2022/03/05 15:31:32;;;;;;;5.03;3.70;;;;;;;8.53;32.59;100521.69;5113395;28;20027;-69
2022/03/05 15:33:58;;;;;;;6.15;3.85;;;;;;;8.48;32.28;100538.09;5113412;28;20104;-69
2022/03/05 15:36:24;;;;;;;5.70;3.92;;;;;;;8.59;32.04;100532.53;5113718;28;20044;-70
2022/03/05 15:38:50;;;;;;;5.88;4.00;;;;;;;8.58;32.43;100530.88;5113534;28;20039;-70
2022/03/05 15:41:16;;;;;;;5.95;3.97;;;;;;;8.54;31.80;100537.50;5113528;28;20061;-71
2022/03/05 15:43:41;;;;;;;7.97;4.30;;;;;;;8.42;32.15;100526.25;5111446;28;20100;-70
2022/03/05 15:46:09;;;;;;;6.95;4.00;;;;;;;8.33;32.57;100524.47;5113553;28;20057;-70
2022/03/05 15:48:39;;;;;;;7.32;4.38;;;;;;;8.27;33.16;100526.91;5113335;28;20035;-70
2022/03/05 15:51:07;;;;;;;6.38;3.88;;;;;;;8.25;32.71;100534.19;5113358;28;20027;-70
2022/03/05 15:53:34;;;;;;;5.78;3.80;;;;;;;8.24;32.90;100530.69;5112746;28;20038;-70
2022/03/05 15:56:00;;;;;;;5.80;3.85;;;;;;;8.08;33.42;100534.00;5113134;28;20108;-69
2022/03/05 15:58:26;;;;;;;5.63;3.80;;;;;;;8.16;32.56;100528.81;5113194;28;20043;-70
2022/03/05 16:00:52;;;;;;;6.60;4.10;;;;;;;7.70;33.77;100521.84;5113141;28;20047;-70
2022/03/05 16:03:18;;;;;;;6.45;4.00;;;;;;;7.80;33.07;100530.56;5110876;28;20084;-71
2022/03/05 16:05:44;;;;;;;5.57;3.85;;;;;;;7.89;32.69;100523.56;5110761;28;20118;-69
2022/03/05 16:08:09;;;;;;;7.47;4.20;;;;;;;7.79;32.79;100531.53;5113048;28;20476;-68
2022/03/05 16:10:35;;;;;;;5.60;3.60;;;;;;;7.78;33.36;100531.69;5111667;28;20506;-70
2022/03/05 16:13:02;;;;;;;6.10;3.72;;;;;;;7.72;33.21;100525.16;5111906;28;20435;-70
2022/03/05 16:15:28;;;;;;;6.43;3.70;;;;;;;7.69;33.38;100530.75;5111475;28;20124;-69
2022/03/05 16:17:54;;;;;;;6.47;4.18;;;;;;;7.58;33.73;100523.03;5111061;28;20039;-69
2022/03/05 16:20:20;;;;;;;7.65;4.13;;;;;;;7.62;33.69;100527.84;5112894;28;20495;-70
2022/03/05 16:22:46;;;;;;;6.03;3.70;;;;;;;7.69;32.84;100527.28;5112176;28;20032;-70
2022/03/05 16:25:12;;;;;;;5.45;3.25;;;;;;;7.64;33.66;100525.09;5113229;28;20453;-69
2022/03/05 16:27:38;;;;;;;7.88;4.40;;;;;;;7.49;33.79;100529.19;5113011;28;20580;-70
2022/03/05 16:30:05;;;;;;;4.50;3.03;;;;;;;7.51;33.14;100535.19;5112938;28;20114;-70
2022/03/05 16:32:31;;;;;;;4.72;3.35;;;;;;;7.26;33.63;100524.25;5111076;28;20034;-71
2022/03/05 16:34:57;;;;;;;5.18;3.70;;;;;;;7.00;34.30;100528.53;5112970;28;20044;-70
2022/03/05 16:37:22;;;;;;;5.85;3.70;;;;;;;7.23;34.20;100534.31;5112454;28;20492;-70
2022/03/05 16:39:48;;;;;;;5.30;3.67;;;;;;;7.07;34.69;100534.91;5112597;28;20102;-69
2022/03/05 16:42:14;;;;;;;5.32;3.55;;;;;;;7.08;34.36;100536.59;5111760;28;20057;-70
2022/03/05 16:44:40;;;;;;;5.13;3.30;;;;;;;7.10;34.25;100537.25;5111107;28;20512;-70
2022/03/05 16:47:08;;;;;;;7.22;4.20;;;;;;;7.06;33.81;100528.78;5112292;28;20115;-69
2022/03/05 16:49:33;;;;;;;5.47;3.55;;;;;;;7.08;34.18;100536.59;5111129;28;20123;-70
2022/03/05 16:51:59;;;;;;;7.38;4.72;;;;;;;6.92;34.55;100536.34;5111391;28;20077;-70
2022/03/05 16:54:25;;;;;;;6.05;3.90;;;;;;;6.82;34.67;100538.19;5112286;28;20106;-70